createdAt,value
2023-04-20T10:48:21.308Z,8.50
2023-04-20T10:50:50.541Z,8.00
2023-04-20T10:53:20.726Z,9.50
2023-04-20T10:55:59.339Z,8.50
2023-04-20T10:58:29.007Z,8.30
2023-04-20T11:01:01.138Z,8.90
2023-04-20T11:03:33.717Z,7.30
2023-04-20T11:06:03.487Z,7.20
2023-04-20T11:08:40.550Z,6.80
2023-04-20T11:11:20.426Z,7.50
2023-04-20T11:13:49.626Z,7.10
2023-04-20T11:16:19.901Z,6.70
2023-04-20T11:18:53.874Z,6.20
2023-04-20T11:21:23.645Z,6.80
2023-04-20T11:23:52.996Z,6.40
2023-04-20T11:26:22.295Z,5.90
2023-04-20T11:28:56.480Z,5.60
2023-04-20T11:31:27.626Z,6.00
2023-04-20T11:33:57.471Z,5.50
2023-04-20T11:36:30.426Z,6.20
2023-04-20T11:39:09.232Z,5.30
2023-04-20T11:41:38.673Z,5.10
2023-04-20T11:44:07.980Z,4.90
2023-04-20T11:46:37.291Z,5.20
2023-04-20T11:49:06.767Z,4.00
2023-04-20T11:51:36.212Z,3.70
2023-04-20T11:54:05.537Z,4.00
2023-04-20T11:56:34.843Z,4.70
2023-04-20T11:59:04.020Z,4.40
2023-04-20T12:01:33.324Z,4.90
2023-04-20T12:04:02.871Z,4.20
2023-04-20T12:06:32.956Z,4.80
2023-04-20T12:09:02.233Z,3.90
2023-04-20T12:11:31.624Z,3.50
2023-04-20T12:14:00.887Z,3.90
2023-04-20T12:16:30.048Z,3.90
2023-04-20T12:18:59.735Z,3.80
2023-04-20T12:21:29.100Z,3.80
2023-04-20T12:24:01.088Z,3.60
2023-04-20T12:26:37.977Z,3.30
2023-04-20T12:29:10.850Z,3.80
2023-04-20T12:31:40.553Z,3.40
2023-04-20T12:34:10.120Z,3.20
2023-04-20T12:36:39.344Z,3.60
2023-04-20T12:39:11.203Z,3.90
2023-04-20T12:41:42.124Z,3.50
2023-04-20T12:44:12.661Z,3.50
2023-04-20T12:46:41.933Z,3.60
2023-04-20T12:49:12.530Z,3.80
2023-04-20T12:51:41.865Z,3.50
2023-04-20T12:54:11.423Z,3.10
2023-04-20T12:56:40.718Z,3.60
2023-04-20T12:59:10.711Z,3.30
2023-04-20T13:01:39.863Z,3.30
2023-04-20T13:04:09.528Z,3.10
2023-04-20T13:06:38.817Z,3.00
2023-04-20T13:09:08.697Z,2.90
2023-04-20T13:11:37.843Z,3.10
2023-04-20T13:14:07.286Z,2.90
2023-04-20T13:16:37.120Z,2.60
2023-04-20T13:19:07.626Z,2.50
2023-04-20T13:21:37.073Z,2.90
2023-04-20T13:24:07.196Z,2.50
2023-04-20T13:26:36.604Z,2.50
2023-04-20T13:29:05.906Z,2.20
2023-04-20T13:31:36.521Z,2.50
2023-04-20T13:34:06.398Z,2.50
2023-04-20T13:37:04.999Z,2.50
2023-04-20T13:39:34.649Z,2.70
2023-04-20T13:42:18.109Z,2.60
2023-04-20T13:44:47.843Z,2.70
2023-04-20T13:47:17.491Z,2.90
2023-04-20T13:49:46.605Z,2.50
2023-04-20T13:52:15.885Z,2.70
2023-04-20T13:54:45.785Z,2.80
2023-04-20T13:57:15.164Z,2.70
2023-04-20T13:59:47.362Z,2.50
2023-04-20T14:02:18.649Z,2.90
2023-04-20T14:04:48.669Z,2.50
2023-04-20T14:07:17.909Z,2.80
2023-04-20T14:09:47.548Z,2.70
2023-04-20T14:12:17.034Z,3.20
2023-04-20T14:14:46.256Z,3.10
2023-04-20T14:17:16.244Z,2.90
2023-04-20T14:19:45.764Z,3.40
2023-04-20T14:22:15.081Z,3.20
2023-04-20T14:24:46.302Z,3.10
2023-04-20T14:27:15.707Z,3.00
2023-04-20T14:29:44.923Z,2.80
2023-04-20T14:32:14.814Z,2.50
2023-04-20T14:34:44.494Z,2.60
2023-04-20T14:37:14.024Z,2.80
2023-04-20T14:39:43.370Z,2.60
2023-04-20T14:42:14.068Z,2.70
2023-04-20T14:44:43.184Z,2.90
2023-04-20T14:47:12.358Z,2.90
2023-04-20T14:49:42.421Z,3.30
2023-04-20T14:52:11.876Z,3.10
2023-04-20T14:54:41.531Z,3.20
2023-04-20T14:57:10.820Z,3.30
2023-04-20T14:59:40.872Z,2.90
2023-04-20T15:02:10.357Z,3.00
2023-04-20T15:04:40.203Z,2.70
2023-04-20T15:07:09.796Z,3.10
2023-04-20T15:09:39.084Z,2.80
2023-04-20T15:12:10.163Z,3.50
2023-04-20T15:15:47.619Z,3.10
2023-04-20T15:20:50.281Z,3.30
2023-04-20T15:23:16.759Z,3.40
2023-04-20T15:25:48.292Z,3.50
2023-04-20T15:28:17.814Z,4.80
2023-04-20T15:30:47.367Z,5.50
2023-04-20T15:33:17.163Z,6.00
2023-04-20T15:35:48.723Z,6.10
2023-04-20T15:38:17.798Z,5.80
2023-04-20T15:40:48.706Z,6.10
2023-04-20T15:43:19.146Z,5.00
2023-04-20T15:45:49.944Z,4.70
2023-04-20T15:48:19.570Z,5.00
2023-04-20T15:50:54.162Z,4.90
2023-04-20T15:53:26.387Z,5.10
2023-04-20T16:00:05.085Z,4.80
2023-04-20T16:02:40.477Z,5.20
2023-04-20T16:05:10.736Z,5.20
2023-04-20T16:07:42.500Z,5.10
2023-04-20T16:10:15.248Z,4.70
2023-04-20T16:12:45.191Z,4.70
2023-04-20T16:15:15.905Z,4.50
2023-04-20T16:17:45.259Z,4.30
2023-04-20T16:20:14.894Z,4.30
2023-04-20T16:22:44.347Z,4.40
2023-04-20T16:25:22.093Z,4.80
2023-04-20T16:27:51.982Z,5.00
2023-04-20T16:30:23.621Z,5.30
2023-04-20T16:32:53.124Z,4.80
2023-04-20T16:35:22.811Z,4.80
2023-04-20T16:37:52.363Z,4.50
2023-04-20T16:40:22.116Z,4.00
2023-04-20T16:42:51.735Z,4.30
2023-04-20T16:45:21.435Z,3.70
2023-04-20T16:47:51.413Z,4.10
2023-04-20T16:50:21.846Z,4.00
2023-04-20T16:52:51.189Z,3.90
2023-04-20T16:55:20.927Z,3.90
2023-04-20T16:57:50.761Z,3.40
2023-04-20T17:00:22.371Z,3.60
2023-04-20T17:02:52.922Z,3.90
2023-04-20T17:05:31.520Z,3.40
2023-04-20T17:10:38.758Z,3.80
2023-04-20T17:13:08.522Z,4.00
2023-04-20T17:15:39.668Z,4.10
2023-04-20T17:18:08.842Z,4.10
2023-04-20T17:20:39.668Z,3.60
2023-04-20T17:23:10.743Z,3.80
2023-04-20T17:25:41.684Z,3.70
2023-04-20T17:28:10.978Z,3.80
2023-04-20T17:30:40.520Z,3.50
2023-04-20T17:33:11.697Z,3.70
2023-04-20T17:35:41.271Z,3.60
2023-04-20T17:38:11.046Z,3.80
2023-04-20T17:40:40.627Z,3.80
2023-04-20T17:43:10.008Z,4.30
2023-04-20T17:45:39.468Z,4.30
2023-04-20T17:48:09.017Z,4.60
2023-04-20T17:50:38.276Z,4.30
2023-04-20T17:53:07.965Z,5.00
2023-04-20T17:55:37.589Z,4.60
2023-04-20T17:58:06.981Z,4.40
2023-04-20T18:00:37.928Z,4.00
2023-04-20T18:03:07.349Z,4.00
2023-04-20T18:05:37.638Z,4.10
2023-04-20T18:08:12.560Z,3.90
2023-04-20T18:10:41.741Z,4.20
2023-04-20T18:13:15.837Z,4.10
2023-04-20T18:15:46.359Z,3.90
2023-04-20T18:18:21.205Z,4.20
2023-04-20T18:20:50.673Z,4.30
2023-04-20T18:23:23.960Z,4.00
2023-04-20T18:25:54.764Z,4.40
2023-04-20T18:28:24.163Z,4.30
2023-04-20T18:30:55.729Z,4.80
2023-04-20T18:33:27.784Z,4.20
2023-04-20T18:35:57.570Z,4.40
2023-04-20T18:38:27.528Z,4.60
2023-04-20T18:41:00.388Z,5.80
2023-04-20T18:43:33.017Z,5.80
2023-04-20T18:46:05.652Z,5.60
2023-04-20T18:48:36.682Z,6.20
2023-04-20T18:51:10.092Z,6.50
2023-04-20T18:53:45.575Z,6.70
2023-04-20T18:56:15.037Z,6.10
2023-04-20T18:58:44.767Z,6.00
2023-04-20T19:01:17.368Z,5.80
2023-04-20T19:03:48.373Z,5.50
2023-04-20T19:06:19.716Z,6.20
2023-04-20T19:08:50.931Z,5.60
2023-04-20T19:11:20.104Z,6.30
2023-04-20T19:13:49.871Z,5.80
2023-04-20T19:16:20.390Z,8.50
2023-04-20T19:18:50.608Z,10.10
2023-04-20T19:21:22.034Z,17.30
2023-04-20T19:23:51.941Z,19.20
2023-04-20T19:26:21.549Z,19.30
2023-04-20T19:28:50.852Z,18.90
2023-04-20T19:31:21.100Z,15.60
2023-04-20T19:33:55.255Z,14.90
2023-04-20T19:36:27.309Z,11.50
2023-04-20T19:38:57.314Z,10.10
2023-04-20T19:41:27.631Z,9.30
2023-04-20T19:43:58.752Z,8.90
2023-04-20T19:46:28.022Z,7.30
2023-04-20T19:48:57.359Z,8.40
2023-04-20T19:51:26.891Z,7.40
2023-04-20T19:53:56.116Z,7.40
2023-04-20T19:56:26.505Z,6.90
2023-04-20T19:58:55.707Z,6.20
2023-04-20T20:01:25.205Z,6.80
2023-04-20T20:03:55.357Z,5.60
2023-04-20T20:06:26.674Z,6.20
2023-04-20T20:08:56.293Z,5.20
2023-04-20T20:11:26.541Z,5.30
2023-04-20T20:13:55.999Z,5.50
2023-04-20T20:16:27.629Z,5.40
2023-04-20T20:18:59.015Z,5.50
2023-04-20T20:21:29.282Z,5.50
2023-04-20T20:23:58.767Z,5.50
2023-04-20T20:26:28.525Z,5.80
2023-04-20T20:28:57.855Z,5.80
2023-04-20T20:31:28.356Z,5.70
2023-04-20T20:33:58.580Z,5.30
2023-04-20T20:36:31.386Z,5.30
2023-04-20T20:39:01.130Z,6.40
2023-04-20T20:41:30.800Z,5.10
2023-04-20T20:44:01.894Z,5.70
2023-04-20T20:46:33.944Z,5.00
2023-04-20T20:49:10.392Z,4.90
2023-04-20T20:51:42.590Z,5.30
2023-04-20T20:54:28.140Z,5.30
2023-04-20T20:56:58.346Z,6.00
2023-04-20T20:59:28.036Z,5.50
2023-04-20T21:01:57.326Z,5.20
2023-04-20T21:04:29.576Z,5.40
2023-04-20T21:07:01.178Z,5.50
2023-04-20T21:09:33.002Z,5.70
2023-04-20T21:12:02.465Z,5.00
2023-04-20T21:14:31.852Z,5.40
2023-04-20T21:17:01.073Z,4.40
2023-04-20T21:19:30.436Z,5.20
2023-04-20T21:21:59.940Z,4.80
2023-04-20T21:24:29.342Z,5.00
2023-04-20T21:26:59.350Z,5.60
2023-04-20T21:29:28.713Z,5.20
2023-04-20T21:31:58.174Z,5.00
2023-04-20T21:34:27.770Z,4.70
2023-04-20T21:37:03.915Z,4.60
2023-04-20T21:39:34.080Z,4.20
2023-04-20T21:42:04.190Z,4.80
2023-04-20T21:44:33.538Z,4.50
2023-04-20T21:47:03.105Z,4.90
2023-04-20T21:49:32.821Z,5.00
2023-04-20T21:52:02.022Z,4.90
2023-04-20T21:54:33.198Z,4.50
2023-04-20T21:57:04.245Z,4.40
2023-04-20T21:59:33.708Z,4.30
2023-04-20T22:02:03.365Z,4.90
2023-04-20T22:04:33.200Z,4.10
2023-04-20T22:07:03.413Z,4.60
2023-04-20T22:09:32.778Z,4.40
2023-04-20T22:12:02.760Z,3.80
2023-04-20T22:14:32.268Z,4.60
2023-04-20T22:17:02.113Z,4.50
2023-04-20T22:19:31.566Z,4.40
2023-04-20T22:22:01.248Z,4.50
2023-04-20T22:24:30.286Z,4.40
2023-04-20T22:26:59.656Z,4.50
2023-04-20T22:29:28.963Z,4.50
2023-04-20T22:31:58.107Z,4.50
2023-04-20T22:34:27.735Z,4.80
2023-04-20T22:36:57.058Z,4.80
2023-04-20T22:39:26.321Z,4.60
2023-04-20T22:41:55.586Z,4.00
2023-04-20T22:44:24.889Z,4.30
2023-04-20T22:46:54.250Z,4.20
2023-04-20T22:49:23.741Z,4.50
2023-04-20T22:51:56.080Z,4.50
2023-04-20T22:54:25.750Z,4.50
2023-04-20T22:56:55.157Z,4.50
2023-04-20T22:59:24.654Z,4.50
2023-04-20T23:01:53.895Z,4.50
2023-04-20T23:04:23.092Z,4.30
2023-04-20T23:06:52.463Z,4.90
2023-04-20T23:09:21.969Z,4.70
2023-04-20T23:11:53.195Z,4.60
2023-04-20T23:14:23.309Z,4.20
2023-04-20T23:16:52.703Z,3.90
2023-04-20T23:19:21.953Z,4.40
2023-04-20T23:21:51.292Z,4.20
2023-04-20T23:24:20.495Z,4.60
2023-04-20T23:26:50.344Z,4.40
2023-04-20T23:29:20.695Z,4.30
2023-04-20T23:31:50.721Z,4.00
2023-04-20T23:34:20.917Z,4.40
2023-04-20T23:36:53.245Z,5.00
2023-04-20T23:39:22.997Z,4.50
2023-04-20T23:41:52.204Z,5.00
2023-04-20T23:44:21.502Z,5.00
2023-04-20T23:46:50.966Z,4.40
2023-04-20T23:49:21.318Z,4.30
2023-04-20T23:51:51.351Z,5.00
2023-04-20T23:54:21.411Z,4.60
2023-04-20T23:56:51.864Z,5.10
2023-04-20T23:59:21.593Z,4.70
